createdAt,value
2017-09-04T00:01:34.328Z,5.90
2017-09-04T00:04:01.127Z,6.70
2017-09-04T00:06:27.877Z,5.87
2017-09-04T00:08:54.656Z,6.80
2017-09-04T00:11:21.413Z,6.13
2017-09-04T00:13:48.236Z,6.90
2017-09-04T00:16:15.022Z,7.17
2017-09-04T00:18:41.822Z,5.73
2017-09-04T00:21:08.648Z,6.97
2017-09-04T00:23:35.427Z,6.30
2017-09-04T00:26:02.184Z,7.07
2017-09-04T00:28:28.955Z,6.30
2017-09-04T00:30:55.695Z,5.80
2017-09-04T00:33:22.511Z,6.40
2017-09-04T00:35:49.261Z,6.53
2017-09-04T00:38:16.042Z,5.97
2017-09-04T00:40:42.800Z,6.00
2017-09-04T00:43:09.603Z,6.57
2017-09-04T00:45:36.375Z,7.43
2017-09-04T00:48:03.185Z,7.23
2017-09-04T00:50:29.966Z,6.20
2017-09-04T00:52:56.785Z,6.77
2017-09-04T00:55:23.559Z,7.00
2017-09-04T00:57:50.817Z,7.17
2017-09-04T01:00:17.586Z,7.17
2017-09-04T01:02:44.377Z,8.00
2017-09-04T01:05:11.170Z,7.00
2017-09-04T01:07:37.954Z,7.43
2017-09-04T01:10:04.739Z,7.53
2017-09-04T01:12:31.521Z,6.87
2017-09-04T01:14:58.334Z,6.57
2017-09-04T01:17:25.103Z,7.47
2017-09-04T01:19:51.946Z,7.40
2017-09-04T01:22:18.709Z,6.80
2017-09-04T01:24:45.510Z,7.53
2017-09-04T01:27:12.294Z,7.03
2017-09-04T01:29:39.076Z,7.23
2017-09-04T01:32:06.552Z,6.40
2017-09-04T01:34:33.327Z,5.90
2017-09-04T01:37:00.091Z,6.83
2017-09-04T01:39:26.863Z,5.80
2017-09-04T01:41:53.620Z,6.73
2017-09-04T01:44:20.431Z,6.60
2017-09-04T01:46:47.175Z,5.93
2017-09-04T01:49:14.600Z,6.70
2017-09-04T01:51:41.373Z,5.67
2017-09-04T01:54:08.182Z,6.03
2017-09-04T01:56:34.958Z,6.80
2017-09-04T01:59:01.760Z,6.90
2017-09-04T02:01:28.512Z,6.80
2017-09-04T02:03:55.649Z,6.30
2017-09-04T02:06:23.002Z,5.63
2017-09-04T02:08:49.787Z,7.00
2017-09-04T02:11:16.565Z,7.43
2017-09-04T02:13:43.372Z,7.77
2017-09-04T02:16:10.188Z,6.57
2017-09-04T02:18:36.990Z,6.90
2017-09-04T02:21:03.741Z,6.53
2017-09-04T02:23:30.579Z,7.27
2017-09-04T02:25:57.333Z,7.43
2017-09-04T02:28:24.137Z,6.70
2017-09-04T02:30:50.926Z,6.70
2017-09-04T02:33:17.763Z,7.20
2017-09-04T02:35:44.542Z,6.40
2017-09-04T02:38:11.348Z,6.17
2017-09-04T02:40:38.110Z,7.43
2017-09-04T02:43:04.908Z,7.40
2017-09-04T02:45:31.727Z,6.80
2017-09-04T02:47:58.485Z,6.80
2017-09-04T02:50:25.263Z,7.07
2017-09-04T02:52:52.011Z,6.90
2017-09-04T02:55:18.812Z,6.57
2017-09-04T02:57:45.578Z,7.07
2017-09-04T03:00:12.404Z,6.50
2017-09-04T03:02:39.263Z,7.20
2017-09-04T03:05:06.105Z,8.17
2017-09-04T03:07:32.888Z,7.20
2017-09-04T03:09:59.663Z,8.07
2017-09-04T03:12:27.180Z,7.50
2017-09-04T03:14:54.296Z,6.90
2017-09-04T03:17:21.118Z,8.30
2017-09-04T03:19:47.942Z,7.83
2017-09-04T03:22:14.698Z,7.40
2017-09-04T03:24:41.522Z,6.13
2017-09-04T03:27:08.315Z,6.43
2017-09-04T03:29:35.213Z,6.57
2017-09-04T03:32:01.992Z,7.10
2017-09-04T03:34:29.208Z,7.50
2017-09-04T03:36:55.970Z,6.63
2017-09-04T03:39:23.477Z,6.57
2017-09-04T03:41:50.302Z,7.40
2017-09-04T03:44:17.159Z,8.07
2017-09-04T03:46:43.966Z,7.40
2017-09-04T03:49:10.818Z,6.97
2017-09-04T03:51:37.660Z,6.07
2017-09-04T03:54:04.510Z,7.20
2017-09-04T03:56:31.339Z,7.27
2017-09-04T03:58:58.188Z,7.13
2017-09-04T04:01:25.319Z,6.90
2017-09-04T04:03:52.107Z,7.90
2017-09-04T04:06:18.906Z,7.53
2017-09-04T04:08:46.707Z,8.63
2017-09-04T04:11:13.507Z,7.00
2017-09-04T04:13:40.339Z,8.03
2017-09-04T04:16:07.182Z,8.00
2017-09-04T04:18:34.006Z,8.93
2017-09-04T04:21:00.792Z,7.60
2017-09-04T04:23:27.635Z,7.70
2017-09-04T04:25:54.412Z,8.27
2017-09-04T04:28:21.203Z,7.30
2017-09-04T04:30:47.998Z,8.00
2017-09-04T04:33:14.787Z,8.00
2017-09-04T04:35:41.550Z,6.07
2017-09-04T04:38:08.335Z,7.50
2017-09-04T04:40:35.117Z,6.70
2017-09-04T04:43:01.920Z,7.77
2017-09-04T04:45:28.683Z,8.40
2017-09-04T04:47:55.473Z,8.03
2017-09-04T04:50:22.248Z,6.67
2017-09-04T04:52:49.036Z,8.87
2017-09-04T04:55:15.790Z,7.13
2017-09-04T04:57:42.595Z,7.43
2017-09-04T05:00:09.366Z,7.90
2017-09-04T05:02:36.162Z,7.43
2017-09-04T05:05:02.930Z,7.00
2017-09-04T05:07:29.716Z,8.93
2017-09-04T05:09:56.486Z,7.53
2017-09-04T05:12:23.317Z,8.83
2017-09-04T05:14:50.081Z,8.60
2017-09-04T05:17:16.894Z,7.20
2017-09-04T05:19:43.649Z,8.03
2017-09-04T05:22:10.455Z,9.17
2017-09-04T05:24:37.219Z,8.27
2017-09-04T05:27:04.425Z,7.00
2017-09-04T05:29:31.226Z,8.70
2017-09-04T05:31:58.058Z,7.53
2017-09-04T05:34:25.308Z,7.43
2017-09-04T05:36:52.117Z,8.20
2017-09-04T05:39:18.872Z,8.07
2017-09-04T05:41:45.607Z,8.70
2017-09-04T05:44:12.405Z,6.53
2017-09-04T05:46:39.898Z,8.20
2017-09-04T05:49:06.731Z,13.87
2017-09-04T05:51:33.540Z,7.20
2017-09-04T05:54:00.370Z,6.87
2017-09-04T05:56:27.111Z,5.83
2017-09-04T05:58:53.896Z,6.50
2017-09-04T06:01:20.680Z,6.00
2017-09-04T06:03:47.479Z,5.67
2017-09-04T06:06:14.270Z,10.80
2017-09-04T06:08:41.084Z,7.10
2017-09-04T06:11:07.854Z,6.00
2017-09-04T06:13:34.664Z,5.80
2017-09-04T06:16:01.466Z,6.27
2017-09-04T06:18:28.299Z,7.07
2017-09-04T06:20:55.058Z,5.67
2017-09-04T06:23:21.860Z,5.00
2017-09-04T06:25:48.631Z,5.43
2017-09-04T06:28:15.462Z,4.90
2017-09-04T06:30:42.259Z,5.20
2017-09-04T06:33:09.058Z,4.87
2017-09-04T06:35:35.818Z,5.20
2017-09-04T06:38:02.645Z,6.07
2017-09-04T06:40:29.384Z,4.70
2017-09-04T06:42:56.203Z,7.10
2017-09-04T06:45:22.973Z,5.33
2017-09-04T06:47:49.763Z,6.37
2017-09-04T06:50:16.543Z,5.73
2017-09-04T06:52:43.361Z,10.33
2017-09-04T06:55:10.142Z,6.50
2017-09-04T06:57:36.963Z,5.87
2017-09-04T07:00:03.708Z,5.43
2017-09-04T07:02:30.513Z,6.83
2017-09-04T07:04:57.259Z,6.50
2017-09-04T07:07:24.051Z,6.00
2017-09-04T07:09:50.816Z,5.30
2017-09-04T07:12:17.619Z,6.70
2017-09-04T07:14:44.360Z,5.97
2017-09-04T07:17:11.147Z,6.13
2017-09-04T07:19:37.899Z,5.60
2017-09-04T07:22:04.670Z,5.37
2017-09-04T07:24:31.466Z,5.37
2017-09-04T07:26:58.208Z,5.23
2017-09-04T07:29:24.984Z,4.60
2017-09-04T07:31:51.746Z,4.90
2017-09-04T07:34:18.573Z,5.00
2017-09-04T07:36:45.345Z,4.30
2017-09-04T07:39:12.889Z,5.00
2017-09-04T07:41:39.631Z,5.30
2017-09-04T07:44:06.441Z,4.30
2017-09-04T07:46:33.171Z,3.90
2017-09-04T07:48:59.966Z,4.17
2017-09-04T07:51:26.713Z,3.97
2017-09-04T07:53:53.508Z,3.70
2017-09-04T07:56:20.260Z,4.20
2017-09-04T07:58:47.083Z,3.60
2017-09-04T08:01:13.899Z,3.70
2017-09-04T08:03:41.275Z,4.67
2017-09-04T08:06:08.040Z,4.73
2017-09-04T08:08:34.942Z,2.70
2017-09-04T08:11:02.316Z,3.53
2017-09-04T08:13:29.126Z,3.53
2017-09-04T08:15:55.875Z,3.73
2017-09-04T08:18:22.681Z,2.97
2017-09-04T08:20:49.437Z,2.87
2017-09-04T08:23:16.366Z,2.70
2017-09-04T08:25:43.164Z,3.20
2017-09-04T08:28:09.966Z,2.80
2017-09-04T08:30:36.703Z,3.03
2017-09-04T08:33:03.503Z,2.57
2017-09-04T08:35:30.263Z,2.77
2017-09-04T08:37:57.066Z,2.70
2017-09-04T08:40:23.810Z,1.23
2017-09-04T08:42:50.600Z,2.00
2017-09-04T08:45:17.371Z,2.20
2017-09-04T08:47:44.173Z,2.17
2017-09-04T08:50:11.017Z,1.70
2017-09-04T08:52:37.860Z,1.60
2017-09-04T08:55:04.650Z,1.50
2017-09-04T08:57:31.459Z,1.93
2017-09-04T08:59:58.958Z,1.40
2017-09-04T09:02:26.254Z,1.80
2017-09-04T09:04:53.114Z,2.60
2017-09-04T09:07:20.206Z,1.57
2017-09-04T09:09:47.175Z,1.40
2017-09-04T09:12:13.983Z,1.30
2017-09-04T09:14:40.842Z,1.60
2017-09-04T09:17:07.601Z,1.50
2017-09-04T09:19:34.395Z,1.20
2017-09-04T09:22:01.202Z,1.20
2017-09-04T09:24:28.063Z,1.33
2017-09-04T09:26:54.845Z,1.50
2017-09-04T09:29:21.645Z,1.30
2017-09-04T09:31:48.426Z,1.10
2017-09-04T09:34:15.200Z,1.40
2017-09-04T09:36:41.962Z,1.10
2017-09-04T09:39:08.749Z,1.20
2017-09-04T09:41:35.516Z,1.20
2017-09-04T09:44:02.313Z,1.30
2017-09-04T09:46:29.692Z,1.27
2017-09-04T09:48:56.514Z,1.10
2017-09-04T09:51:23.310Z,1.30
2017-09-04T09:53:50.160Z,1.20
2017-09-04T09:56:16.994Z,1.37
2017-09-04T09:58:43.843Z,1.47
2017-09-04T10:01:10.645Z,1.97
2017-09-04T10:03:37.485Z,1.00
2017-09-04T10:06:04.290Z,1.00
2017-09-04T10:08:31.103Z,1.17
2017-09-04T10:10:57.899Z,1.30
2017-09-04T10:13:24.738Z,0.77
2017-09-04T10:15:51.534Z,2.30
2017-09-04T10:18:18.346Z,1.70
2017-09-04T10:20:45.116Z,1.30
2017-09-04T10:23:12.674Z,1.50
2017-09-04T10:25:39.461Z,1.40
2017-09-04T10:28:06.274Z,1.47
2017-09-04T10:30:33.047Z,1.17
2017-09-04T10:32:59.892Z,1.27
2017-09-04T10:35:26.698Z,1.60
2017-09-04T10:37:53.498Z,1.10
2017-09-04T10:40:20.286Z,1.30
2017-09-04T10:42:47.630Z,1.10
2017-09-04T10:45:14.952Z,1.10
2017-09-04T10:47:41.779Z,2.13
2017-09-04T10:50:08.559Z,1.70
2017-09-04T10:52:35.394Z,1.50
2017-09-04T10:55:02.168Z,1.20
2017-09-04T10:57:29.190Z,1.10
2017-09-04T10:59:56.030Z,1.20
2017-09-04T11:02:22.859Z,1.10
2017-09-04T11:04:49.733Z,1.10
2017-09-04T11:07:16.500Z,1.10
2017-09-04T11:09:43.807Z,1.70
2017-09-04T11:12:10.944Z,1.53
2017-09-04T11:14:38.525Z,1.20
2017-09-04T11:17:05.340Z,1.40
2017-09-04T11:19:32.206Z,4.30
2017-09-04T11:21:59.038Z,1.60
2017-09-04T11:24:26.342Z,1.30
2017-09-04T11:26:53.146Z,1.97
2017-09-04T11:29:19.986Z,1.47
2017-09-04T11:31:47.009Z,1.40
2017-09-04T11:34:13.834Z,2.07
2017-09-04T11:36:40.620Z,2.00
2017-09-04T11:39:07.459Z,1.10
2017-09-04T11:41:34.236Z,1.60
2017-09-04T11:44:01.047Z,1.20
2017-09-04T11:46:27.799Z,1.47
2017-09-04T11:51:27.814Z,1.40
2017-09-04T11:53:54.626Z,1.00
2017-09-04T11:56:21.871Z,1.20
2017-09-04T11:58:48.669Z,1.10
2017-09-04T12:01:15.462Z,1.60
2017-09-04T12:03:42.253Z,1.30
2017-09-04T12:06:09.003Z,1.30
2017-09-04T12:08:35.802Z,1.30
2017-09-04T12:11:02.597Z,2.07
2017-09-04T12:13:29.406Z,1.27
2017-09-04T12:15:56.186Z,1.07
2017-09-04T12:18:22.975Z,1.10
2017-09-04T12:20:49.916Z,1.20
2017-09-04T12:23:16.684Z,1.83
2017-09-04T12:25:43.473Z,1.10
2017-09-04T12:28:10.315Z,1.20
2017-09-04T12:30:37.070Z,1.10
2017-09-04T12:33:03.914Z,0.90
2017-09-04T12:35:31.429Z,1.00
2017-09-04T12:37:58.239Z,0.80
2017-09-04T12:40:25.018Z,1.10
2017-09-04T12:42:51.800Z,0.53
2017-09-04T12:45:18.579Z,1.10
2017-09-04T12:47:45.970Z,1.23
2017-09-04T12:50:12.752Z,2.13
2017-09-04T12:52:39.870Z,2.60
2017-09-04T12:55:06.631Z,0.90
2017-09-04T12:57:33.394Z,1.20
2017-09-04T13:00:00.202Z,1.10
2017-09-04T13:02:26.981Z,1.20
2017-09-04T13:04:53.776Z,1.10
2017-09-04T13:07:20.903Z,0.90
2017-09-04T13:09:47.715Z,1.17
2017-09-04T13:12:25.615Z,1.30
2017-09-04T13:15:12.097Z,1.20
2017-09-04T13:17:58.559Z,1.00
2017-09-04T13:20:46.163Z,1.03
2017-09-04T13:23:18.888Z,1.03
2017-09-04T13:25:51.407Z,1.03
2017-09-04T13:28:33.080Z,1.00
2017-09-04T13:31:05.454Z,1.47
2017-09-04T13:33:37.827Z,1.17
2017-09-04T13:36:25.384Z,1.10
2017-09-04T13:39:10.843Z,1.23
2017-09-04T13:41:43.183Z,1.00
2017-09-04T13:44:28.649Z,1.00
2017-09-04T13:47:12.032Z,1.30
2017-09-04T13:49:41.435Z,1.60
2017-09-04T13:52:14.915Z,1.33
2017-09-04T13:54:47.261Z,1.07
2017-09-04T13:57:19.723Z,1.00
2017-09-04T14:00:04.251Z,0.90
2017-09-04T14:02:36.712Z,1.23
2017-09-04T14:05:09.169Z,1.40
2017-09-04T14:07:41.556Z,1.40
2017-09-04T14:10:25.804Z,1.20
2017-09-04T14:12:55.873Z,1.40
2017-09-04T14:15:33.890Z,0.90
2017-09-04T14:18:08.178Z,0.80
2017-09-04T14:20:35.880Z,1.10
2017-09-04T14:23:02.663Z,1.10
2017-09-04T14:25:29.503Z,1.30
2017-09-04T14:27:56.297Z,1.20
2017-09-04T14:30:23.158Z,0.93
2017-09-04T14:32:50.031Z,1.23
2017-09-04T14:35:16.895Z,1.50
2017-09-04T14:37:43.680Z,1.10
2017-09-04T14:40:10.527Z,1.10
2017-09-04T14:42:50.947Z,1.77
2017-09-04T14:45:20.833Z,1.00
2017-09-04T14:47:48.579Z,1.10
2017-09-04T14:50:15.415Z,1.00
2017-09-04T14:52:42.206Z,1.40
2017-09-04T14:55:09.063Z,1.30
2017-09-04T14:57:35.851Z,1.50
2017-09-04T15:00:02.686Z,1.63
2017-09-04T15:02:29.467Z,1.07
2017-09-04T15:04:56.299Z,1.63
2017-09-04T15:07:23.092Z,1.10
2017-09-04T15:09:49.926Z,0.93
2017-09-04T15:12:16.714Z,1.30
2017-09-04T15:14:43.546Z,1.20
2017-09-04T15:17:10.342Z,1.33
2017-09-04T15:19:37.140Z,1.30
2017-09-04T15:22:03.930Z,1.30
2017-09-04T15:24:30.755Z,1.17
2017-09-04T15:26:57.548Z,1.57
2017-09-04T15:29:24.387Z,1.40
2017-09-04T15:31:51.172Z,1.77
2017-09-04T15:34:17.992Z,1.60
2017-09-04T15:36:44.786Z,1.30
2017-09-04T15:39:11.641Z,1.47
2017-09-04T15:41:38.432Z,1.43
2017-09-04T15:44:05.262Z,0.93
2017-09-04T15:46:32.662Z,1.40
2017-09-04T15:48:59.496Z,1.37
2017-09-04T15:51:26.279Z,1.90
2017-09-04T15:53:53.120Z,1.20
2017-09-04T15:56:19.903Z,1.40
2017-09-04T15:58:46.712Z,1.20
2017-09-04T16:01:13.515Z,1.30
2017-09-04T16:03:40.347Z,0.90
2017-09-04T16:06:21.994Z,1.33
2017-09-04T16:08:48.840Z,0.90
2017-09-04T16:11:16.280Z,1.20
2017-09-04T16:13:48.043Z,1.67
2017-09-04T16:16:18.398Z,1.17
2017-09-04T16:18:45.856Z,1.50
2017-09-04T16:21:28.726Z,1.47
2017-09-04T16:24:15.378Z,1.60
2017-09-04T16:26:46.963Z,1.40
2017-09-04T16:29:31.382Z,1.27
2017-09-04T16:31:58.190Z,1.27
2017-09-04T16:34:25.006Z,1.30
2017-09-04T16:37:09.594Z,1.40
2017-09-04T16:39:51.300Z,1.40
2017-09-04T16:42:33.796Z,1.27
2017-09-04T16:45:04.129Z,1.33
2017-09-04T16:47:33.703Z,1.33
2017-09-04T16:50:04.147Z,1.10
2017-09-04T16:52:30.956Z,1.53
2017-09-04T16:54:57.811Z,1.80
2017-09-04T16:57:28.060Z,1.50
2017-09-04T16:59:54.902Z,1.63
2017-09-04T17:02:21.815Z,1.40
2017-09-04T17:04:49.427Z,1.60
2017-09-04T17:07:16.804Z,1.37
2017-09-04T17:09:53.512Z,1.47
2017-09-04T17:12:36.880Z,1.03
2017-09-04T17:15:06.462Z,1.43
2017-09-04T17:17:37.191Z,1.70
2017-09-04T17:20:09.671Z,1.60
2017-09-04T17:22:52.270Z,1.97
2017-09-04T17:25:21.779Z,1.67
2017-09-04T17:27:48.578Z,1.63
2017-09-04T17:30:15.429Z,1.60
2017-09-04T17:32:42.844Z,1.90
2017-09-04T17:35:09.664Z,1.90
2017-09-04T17:37:36.456Z,1.70
2017-09-04T17:40:03.306Z,2.10
2017-09-04T17:42:30.083Z,1.70
2017-09-04T17:44:56.918Z,1.90
2017-09-04T17:47:23.675Z,2.23
2017-09-04T17:49:50.514Z,2.23
2017-09-04T17:52:17.334Z,2.00
2017-09-04T17:54:44.177Z,2.20
2017-09-04T17:57:10.970Z,1.30
2017-09-04T17:59:37.806Z,1.73
2017-09-04T18:02:04.612Z,2.07
2017-09-04T18:04:32.004Z,2.50
2017-09-04T18:06:58.763Z,2.27
2017-09-04T18:09:25.564Z,2.30
2017-09-04T18:11:53.148Z,3.73
2017-09-04T18:14:19.992Z,2.03
2017-09-04T18:16:46.794Z,2.40
2017-09-04T18:19:13.623Z,3.10
2017-09-04T18:21:40.416Z,2.60
2017-09-04T18:24:07.238Z,2.57
2017-09-04T18:26:34.799Z,2.50
2017-09-04T18:29:01.560Z,2.73
2017-09-04T18:31:28.442Z,3.43
2017-09-04T18:33:55.210Z,7.40
2017-09-04T18:36:22.053Z,7.60
2017-09-04T18:38:48.807Z,6.27
2017-09-04T18:41:15.592Z,5.10
2017-09-04T18:43:43.176Z,4.30
2017-09-04T18:46:09.992Z,4.43
2017-09-04T18:48:36.780Z,4.40
2017-09-04T18:51:03.584Z,4.50
2017-09-04T18:53:31.099Z,3.73
2017-09-04T18:55:57.905Z,4.60
2017-09-04T18:58:26.691Z,4.30
2017-09-04T19:00:54.387Z,4.33
2017-09-04T19:03:21.186Z,5.90
2017-09-04T19:05:47.947Z,6.90
2017-09-04T19:08:14.726Z,5.17
2017-09-04T19:10:41.557Z,4.40
2017-09-04T19:13:08.343Z,4.60
2017-09-04T19:15:35.204Z,5.30
2017-09-04T19:18:01.948Z,4.90
2017-09-04T19:20:28.730Z,5.23
2017-09-04T19:22:55.534Z,5.60
2017-09-04T19:25:22.312Z,5.87
2017-09-04T19:27:49.182Z,5.63
2017-09-04T19:30:15.986Z,5.63
2017-09-04T19:32:42.834Z,5.43
2017-09-04T19:35:09.624Z,5.10
2017-09-04T19:37:36.413Z,5.27
2017-09-04T19:40:03.879Z,6.00
2017-09-04T19:42:30.663Z,8.20
2017-09-04T19:44:57.457Z,7.20
2017-09-04T19:47:24.225Z,6.10
2017-09-04T19:49:51.005Z,4.93
2017-09-04T19:52:17.806Z,6.50
2017-09-04T19:54:45.172Z,5.50
2017-09-04T19:57:11.980Z,6.80
2017-09-04T19:59:38.786Z,5.80
2017-09-04T20:02:05.578Z,5.80
2017-09-04T20:04:32.808Z,6.40
2017-09-04T20:06:59.595Z,6.50
2017-09-04T20:09:26.447Z,6.07
2017-09-04T20:11:53.229Z,6.80
2017-09-04T20:14:20.075Z,6.57
2017-09-04T20:16:46.871Z,6.30
2017-09-04T20:19:13.696Z,7.63
2017-09-04T20:21:41.203Z,6.80
2017-09-04T20:24:08.070Z,6.60
2017-09-04T20:26:34.845Z,7.23
2017-09-04T20:29:02.366Z,6.57
2017-09-04T20:31:29.103Z,7.23
2017-09-04T20:33:56.450Z,6.77
2017-09-04T20:36:23.203Z,7.23
2017-09-04T20:38:50.029Z,6.97
2017-09-04T20:41:16.780Z,6.93
2017-09-04T20:43:44.194Z,6.57
2017-09-04T20:46:10.948Z,6.20
2017-09-04T20:48:38.730Z,6.20
2017-09-04T20:51:05.474Z,6.43
2017-09-04T20:53:32.270Z,7.50
2017-09-04T20:55:59.054Z,6.10
2017-09-04T20:58:25.894Z,6.10
2017-09-04T21:00:52.651Z,6.20
2017-09-04T21:03:19.678Z,6.73
2017-09-04T21:05:46.456Z,7.67
2017-09-04T21:08:13.268Z,7.67
2017-09-04T21:10:40.075Z,6.97
2017-09-04T21:13:07.410Z,7.20
2017-09-04T21:15:34.738Z,7.90
2017-09-04T21:18:01.546Z,11.80
2017-09-04T21:20:28.324Z,6.50
2017-09-04T21:22:55.129Z,7.40
2017-09-04T21:25:21.958Z,6.80
2017-09-04T21:27:49.062Z,7.67
2017-09-04T21:30:15.872Z,7.60
2017-09-04T21:32:42.642Z,7.17
2017-09-04T21:35:09.488Z,7.60
2017-09-04T21:37:36.280Z,6.53
2017-09-04T21:40:03.095Z,7.70
2017-09-04T21:42:29.899Z,6.30
2017-09-04T21:44:57.529Z,7.20
2017-09-04T21:47:25.027Z,7.20
2017-09-04T21:49:51.877Z,7.70
2017-09-04T21:52:18.682Z,7.77
2017-09-04T21:54:45.479Z,7.90
2017-09-04T21:57:12.227Z,8.30
2017-09-04T21:59:39.039Z,7.97
2017-09-04T22:02:05.843Z,7.80
2017-09-04T22:04:32.643Z,7.33
2017-09-04T22:06:59.425Z,7.30
2017-09-04T22:09:26.268Z,8.00
2017-09-04T22:11:53.049Z,6.87
2017-09-04T22:14:20.396Z,6.63
2017-09-04T22:16:47.194Z,6.73
2017-09-04T22:19:13.979Z,7.43
2017-09-04T22:21:40.729Z,8.20
2017-09-04T22:24:07.541Z,7.37
2017-09-04T22:26:34.446Z,6.37
2017-09-04T22:29:01.254Z,7.40
2017-09-04T22:31:28.088Z,7.67
2017-09-04T22:33:54.930Z,6.50
2017-09-04T22:36:21.723Z,7.77
2017-09-04T22:38:48.559Z,8.03
2017-09-04T22:41:15.330Z,8.33
2017-09-04T22:43:42.170Z,8.77
2017-09-04T22:46:08.962Z,8.63
2017-09-04T22:48:35.787Z,8.60
2017-09-04T22:51:02.582Z,8.20
2017-09-04T22:53:29.400Z,7.53
2017-09-04T22:55:56.175Z,6.70
2017-09-04T22:58:25.668Z,7.63
2017-09-04T23:00:52.431Z,7.37
2017-09-04T23:03:19.266Z,7.50
2017-09-04T23:05:46.087Z,6.73
2017-09-04T23:08:12.917Z,7.30
2017-09-04T23:10:39.733Z,7.47
2017-09-04T23:13:06.498Z,7.10
2017-09-04T23:15:33.296Z,7.93
2017-09-04T23:18:00.103Z,8.50
2017-09-04T23:20:26.910Z,7.17
2017-09-04T23:22:53.682Z,7.97
2017-09-04T23:25:20.943Z,7.73
2017-09-04T23:27:48.276Z,8.03
2017-09-04T23:30:15.070Z,6.67
2017-09-04T23:32:41.834Z,8.00
2017-09-04T23:35:08.659Z,7.20
2017-09-04T23:37:36.170Z,7.20
2017-09-04T23:40:02.999Z,7.80
2017-09-04T23:42:29.774Z,7.47
2017-09-04T23:44:56.585Z,7.53
2017-09-04T23:47:23.382Z,7.63
2017-09-04T23:49:50.200Z,7.40
2017-09-04T23:52:17.011Z,8.13
2017-09-04T23:54:43.787Z,7.57
2017-09-04T23:57:10.630Z,6.77
2017-09-04T23:59:37.428Z,8.37
